Time;durP1;ratioP1;P1;durP2;ratioP2;P2;SDS_P1;SDS_P2;PMS_P1;PMS_P2;Temp;Humidity;BMP_temperature;BMP_pressure;BME280_temperature;BME280_humidity;BME280_pressure;Samples;Min_cycle;Max_cycle;Signal;HPM_P1;HPM_P2
2021/11/23 00:02:19;;;;;;;13.70;13.27;;;20.70;58.30;;;;;;5034125;28;20445;-49
2021/11/23 00:04:46;;;;;;;13.67;13.17;;;20.80;58.50;;;;;;5032776;28;20445;-49
2021/11/23 00:07:13;;;;;;;12.93;12.53;;;20.60;58.60;;;;;;5032784;28;20445;-56
2021/11/23 00:09:40;;;;;;;14.00;13.50;;;20.50;58.80;;;;;;5032565;28;20853;-51
2021/11/23 00:12:08;;;;;;;14.27;13.77;;;20.50;59.20;;;;;;5034814;28;20543;-54
2021/11/23 00:14:35;;;;;;;14.40;13.90;;;20.40;59.40;;;;;;5052621;28;20451;-52
2021/11/23 00:17:03;;;;;;;14.03;13.60;;;20.30;59.50;;;;;;5052509;28;20569;-49
2021/11/23 00:19:31;;;;;;;14.00;13.50;;;20.20;59.70;;;;;;5052287;28;20547;-53
2021/11/23 00:21:58;;;;;;;13.87;13.47;;;20.20;59.90;;;;;;5052488;28;20471;-50
2021/11/23 00:24:26;;;;;;;14.23;13.83;;;20.10;60.20;;;;;;5048599;28;20492;-52
2021/11/23 00:26:53;;;;;;;13.90;13.40;;;20.10;60.40;;;;;;5032365;28;20541;-49
2021/11/23 00:32:17;;;;;;;13.87;13.37;;;20.10;60.60;;;;;;5956355;23;20823;-55
2021/11/23 00:34:45;;;;;;;14.33;13.87;;;20.00;61.60;;;;;;5047716;28;20469;-58
2021/11/23 00:37:12;;;;;;;13.87;13.47;;;20.00;60.70;;;;;;5033651;28;20832;-55
2021/11/23 00:39:39;;;;;;;13.27;12.87;;;20.00;61.00;;;;;;5033660;28;20457;-58
2021/11/23 00:42:06;;;;;;;13.50;13.10;;;19.90;61.00;;;;;;5033538;28;20461;-57
2021/11/23 00:44:33;;;;;;;14.50;14.00;;;19.90;61.30;;;;;;5033402;28;20540;-58
2021/11/23 00:47:00;;;;;;;14.40;13.80;;;19.90;61.40;;;;;;5033065;28;20445;-56
2021/11/23 00:49:27;;;;;;;13.73;13.23;;;19.80;61.60;;;;;;5033482;28;20477;-52
2021/11/23 00:51:55;;;;;;;13.27;12.87;;;19.80;61.90;;;;;;5033334;28;20527;-54
2021/11/23 00:54:22;;;;;;;14.37;13.87;;;19.80;62.00;;;;;;5033132;28;20445;-55
2021/11/23 00:56:48;;;;;;;14.13;13.67;;;19.70;62.30;;;;;;5033017;28;20441;-56
2021/11/23 00:59:15;;;;;;;13.60;13.10;;;19.60;62.40;;;;;;5032880;28;20946;-52
2021/11/23 01:01:42;;;;;;;13.70;13.20;;;19.70;62.70;;;;;;5033086;28;20484;-56
2021/11/23 01:04:09;;;;;;;13.90;13.40;;;19.60;62.60;;;;;;5032747;28;20467;-55
2021/11/23 01:06:36;;;;;;;14.73;14.03;;;19.50;62.70;;;;;;5032801;28;20445;-56
2021/11/23 01:09:04;;;;;;;13.80;13.30;;;19.50;63.20;;;;;;5032518;28;20809;-56
2021/11/23 01:11:31;;;;;;;14.60;14.00;;;19.40;63.20;;;;;;5032184;28;20441;-52
2021/11/23 01:13:58;;;;;;;14.17;13.67;;;19.40;63.60;;;;;;5032312;28;20908;-55
2021/11/23 01:16:25;;;;;;;14.20;13.70;;;19.40;63.70;;;;;;5032424;28;20927;-58
2021/11/23 01:18:52;;;;;;;13.50;13.10;;;19.40;63.80;;;;;;5032397;28;20476;-57
2021/11/23 01:21:18;;;;;;;14.80;14.30;;;19.40;63.70;;;;;;5032235;28;20475;-54
2021/11/23 01:23:45;;;;;;;14.20;13.70;;;19.40;63.60;;;;;;5031938;28;20461;-59
2021/11/23 01:26:13;;;;;;;13.83;13.33;;;19.40;63.50;;;;;;5032127;28;20445;-58
2021/11/23 01:28:40;;;;;;;13.93;13.50;;;19.40;63.70;;;;;;5031979;28;20437;-59
2021/11/23 01:31:07;;;;;;;14.00;13.50;;;19.30;63.70;;;;;;5031779;28;20452;-57
2021/11/23 01:33:34;;;;;;;13.80;13.30;;;19.20;63.80;;;;;;5031426;28;20483;-56
2021/11/23 01:36:02;;;;;;;14.53;14.03;;;19.20;63.90;;;;;;5031782;28;20938;-56
2021/11/23 01:38:28;;;;;;;14.40;13.90;;;19.30;64.10;;;;;;5031715;28;20480;-59
2021/11/23 01:40:55;;;;;;;13.50;13.00;;;19.20;64.10;;;;;;5031641;28;20437;-54
2021/11/23 01:43:23;;;;;;;14.30;13.80;;;19.10;64.40;;;;;;5031431;28;20465;-59
2021/11/23 01:45:51;;;;;;;13.50;13.00;;;19.10;64.50;;;;;;5031647;28;20450;-57
2021/11/23 01:48:18;;;;;;;13.40;12.90;;;19.10;64.70;;;;;;5031903;28;20454;-56
2021/11/23 01:50:45;;;;;;;13.90;13.50;;;19.10;64.90;;;;;;5031860;28;20930;-53
2021/11/23 01:53:12;;;;;;;14.07;13.67;;;19.10;65.00;;;;;;5031413;28;20468;-55
2021/11/23 01:55:41;;;;;;;14.90;14.30;;;19.10;65.00;;;;;;5031335;28;20813;-58
2021/11/23 01:58:10;;;;;;;14.73;14.03;;;19.00;65.00;;;;;;5033299;28;20484;-54
2021/11/23 02:00:39;;;;;;;15.00;14.40;;;19.00;65.40;;;;;;5035423;28;20537;-54
2021/11/23 02:03:06;;;;;;;14.20;13.70;;;18.90;65.80;;;;;;5035271;28;20559;-56
2021/11/23 02:05:33;;;;;;;13.97;13.37;;;18.90;65.50;;;;;;5035250;28;20459;-55
2021/11/23 02:08:01;;;;;;;13.87;13.30;;;18.90;65.80;;;;;;5035285;28;20444;-56
2021/11/23 02:10:28;;;;;;;14.30;13.60;;;18.90;65.80;;;;;;5035235;28;20457;-53
2021/11/23 02:12:55;;;;;;;13.80;13.20;;;18.90;66.00;;;;;;5034980;28;20463;-57
2021/11/23 02:15:22;;;;;;;13.77;13.27;;;18.90;66.00;;;;;;5035140;28;20527;-56
2021/11/23 02:17:51;;;;;;;13.87;13.33;;;18.80;66.20;;;;;;5035020;28;21023;-56
2021/11/23 02:20:21;;;;;;;14.27;13.77;;;18.90;66.30;;;;;;5035126;28;20955;-55
2021/11/23 02:22:49;;;;;;;14.03;13.53;;;18.80;66.20;;;;;;5035096;28;20472;-54
2021/11/23 02:25:17;;;;;;;14.60;14.00;;;18.80;66.60;;;;;;5035335;28;20527;-56
2021/11/23 02:27:45;;;;;;;14.20;13.70;;;18.80;66.70;;;;;;5035429;28;20818;-52
2021/11/23 02:30:12;;;;;;;13.90;13.40;;;18.80;66.40;;;;;;5035415;28;20476;-58
2021/11/23 02:32:41;;;;;;;14.53;14.03;;;18.80;66.40;;;;;;5035234;28;20465;-57
2021/11/23 02:35:09;;;;;;;14.50;13.80;;;18.80;66.50;;;;;;5035255;28;20467;-54
2021/11/23 02:37:43;;;;;;;13.67;13.17;;;18.70;66.80;;;;;;5035916;28;20707;-56
2021/11/23 02:40:11;;;;;;;14.20;13.60;;;18.80;67.00;;;;;;5036396;28;20449;-55
2021/11/23 02:42:38;;;;;;;14.20;13.70;;;18.60;66.90;;;;;;5036065;28;20457;-53
2021/11/23 02:45:06;;;;;;;13.70;13.20;;;18.60;67.30;;;;;;5036494;28;20452;-53
2021/11/23 02:47:34;;;;;;;14.13;13.63;;;18.60;67.40;;;;;;5036512;28;20523;-53
2021/11/23 02:50:01;;;;;;;14.70;14.00;;;18.60;67.30;;;;;;5036341;28;20449;-56
2021/11/23 02:52:27;;;;;;;13.90;13.40;;;18.60;67.40;;;;;;5037086;28;20840;-56
2021/11/23 02:54:57;;;;;;;14.30;13.70;;;18.60;68.00;;;;;;5037827;28;20449;-56
2021/11/23 02:57:25;;;;;;;14.00;13.50;;;18.60;67.40;;;;;;5037215;28;20452;-55
2021/11/23 02:59:52;;;;;;;15.07;14.37;;;18.50;67.60;;;;;;5036378;28;21228;-55
2021/11/23 03:02:19;;;;;;;14.90;14.30;;;18.50;67.60;;;;;;5037171;28;20479;-55
2021/11/23 03:04:51;;;;;;;13.80;13.30;;;18.50;67.70;;;;;;5037142;28;20453;-58
2021/11/23 03:07:18;;;;;;;14.10;13.50;;;18.50;67.80;;;;;;5036668;28;20506;-52
2021/11/23 03:09:45;;;;;;;14.03;13.53;;;18.40;68.50;;;;;;5036720;28;20447;-52
2021/11/23 03:12:16;;;;;;;13.80;13.30;;;18.50;67.90;;;;;;5036711;28;20536;-56
2021/11/23 03:14:43;;;;;;;13.93;13.33;;;18.40;67.90;;;;;;5036548;28;20456;-58
2021/11/23 03:17:10;;;;;;;14.20;13.70;;;18.40;68.10;;;;;;5036584;28;20445;-55
2021/11/23 03:19:37;;;;;;;14.00;13.50;;;18.40;68.30;;;;;;5055493;28;20828;-56
2021/11/23 03:22:04;;;;;;;14.50;13.90;;;18.40;68.30;;;;;;5056581;28;20444;-54
2021/11/23 03:24:31;;;;;;;14.70;14.17;;;18.40;68.20;;;;;;5057090;28;20834;-55
2021/11/23 03:26:58;;;;;;;14.73;14.13;;;18.40;68.10;;;;;;5057285;28;20450;-55
2021/11/23 03:29:27;;;;;;;13.70;13.20;;;18.30;68.40;;;;;;5047974;28;20436;-56
2021/11/23 03:31:54;;;;;;;13.90;13.40;;;18.30;68.30;;;;;;5043942;28;20588;-56
2021/11/23 03:34:21;;;;;;;14.33;13.80;;;18.40;68.30;;;;;;5036436;28;20456;-56
2021/11/23 03:36:49;;;;;;;14.90;14.20;;;18.30;68.90;;;;;;5036238;28;20451;-58
2021/11/23 03:39:15;;;;;;;15.03;14.43;;;18.30;68.60;;;;;;5051015;28;20476;-57
2021/11/23 03:41:42;;;;;;;14.50;14.00;;;18.30;68.70;;;;;;5055583;28;20445;-53
2021/11/23 03:44:10;;;;;;;13.77;13.27;;;18.20;68.70;;;;;;5055364;28;20561;-53
2021/11/23 03:46:38;;;;;;;13.37;12.87;;;18.20;68.90;;;;;;5056046;28;20466;-56
2021/11/23 03:49:05;;;;;;;13.97;13.47;;;18.20;68.90;;;;;;5042587;28;20445;-57
2021/11/23 03:51:32;;;;;;;14.17;13.57;;;18.20;69.10;;;;;;5054300;28;20451;-56
2021/11/23 03:53:59;;;;;;;14.27;13.77;;;18.10;69.00;;;;;;5057045;28;20496;-55
2021/11/23 03:56:26;;;;;;;13.70;13.20;;;18.10;69.20;;;;;;5056721;28;20499;-57
2021/11/23 03:58:53;;;;;;;13.70;13.30;;;18.20;69.10;;;;;;5043891;28;20580;-55
2021/11/23 04:01:19;;;;;;;14.47;13.97;;;18.20;69.30;;;;;;5036457;28;20441;-55
2021/11/23 04:03:47;;;;;;;14.20;13.70;;;18.20;69.30;;;;;;5035845;28;20475;-54
2021/11/23 04:06:14;;;;;;;14.70;14.10;;;18.20;69.30;;;;;;5036175;28;20640;-58
2021/11/23 04:08:41;;;;;;;14.17;13.63;;;18.20;69.10;;;;;;5045834;28;20448;-57
2021/11/23 04:11:08;;;;;;;14.43;13.90;;;18.10;69.10;;;;;;5056357;28;20452;-58
2021/11/23 04:13:35;;;;;;;14.33;13.80;;;18.10;69.20;;;;;;5055248;28;20519;-55
2021/11/23 04:16:02;;;;;;;13.97;13.47;;;18.10;69.50;;;;;;5056121;28;20443;-58
2021/11/23 04:18:29;;;;;;;15.13;14.43;;;18.20;69.60;;;;;;5047138;28;20476;-55
2021/11/23 04:20:57;;;;;;;14.00;13.50;;;18.10;69.20;;;;;;5034084;28;20466;-56
2021/11/23 04:23:24;;;;;;;13.93;13.43;;;18.20;69.40;;;;;;5034407;28;20469;-57
2021/11/23 04:25:50;;;;;;;14.90;14.37;;;18.10;70.10;;;;;;5035294;28;20449;-53
2021/11/23 04:28:17;;;;;;;15.03;14.53;;;18.10;69.70;;;;;;5040970;28;20440;-50
2021/11/23 04:30:44;;;;;;;14.13;13.53;;;18.00;69.90;;;;;;5054432;28;20543;-53
2021/11/23 04:33:13;;;;;;;14.27;13.80;;;18.00;70.30;;;;;;5054420;28;20554;-57
2021/11/23 04:35:40;;;;;;;14.90;14.40;;;18.00;70.40;;;;;;5054482;28;20451;-56
2021/11/23 04:38:09;;;;;;;14.73;14.20;;;18.00;70.10;;;;;;5049861;28;21029;-56
2021/11/23 04:40:36;;;;;;;14.27;13.77;;;18.00;70.10;;;;;;5034437;28;20447;-55
2021/11/23 04:43:05;;;;;;;15.03;14.40;;;18.00;70.10;;;;;;5034008;28;20971;-56
2021/11/23 04:45:33;;;;;;;14.73;14.23;;;18.00;70.50;;;;;;5033538;28;20461;-55
2021/11/23 04:48:00;;;;;;;14.10;13.60;;;18.00;70.60;;;;;;5033729;28;20963;-55
2021/11/23 04:50:27;;;;;;;15.27;14.67;;;18.10;70.50;;;;;;5039246;28;20458;-57
2021/11/23 04:52:55;;;;;;;14.67;14.17;;;18.00;70.50;;;;;;5052969;28;20472;-53
2021/11/23 04:55:23;;;;;;;15.60;15.00;;;18.00;70.80;;;;;;5053520;28;20925;-56
2021/11/23 04:57:50;;;;;;;16.37;15.77;;;18.00;70.80;;;;;;5053027;28;20444;-54
2021/11/23 05:00:18;;;;;;;15.57;14.97;;;18.00;70.80;;;;;;5048501;28;20444;-55
2021/11/23 05:02:46;;;;;;;15.33;14.80;;;18.00;70.60;;;;;;5032900;28;20985;-56
2021/11/23 05:05:14;;;;;;;15.00;14.40;;;18.00;70.70;;;;;;5051250;28;20447;-59
2021/11/23 05:07:42;;;;;;;15.57;14.87;;;18.00;70.90;;;;;;5053509;28;20452;-55
2021/11/23 05:10:10;;;;;;;15.30;14.80;;;18.00;71.10;;;;;;5051421;28;20436;-55
2021/11/23 05:12:39;;;;;;;15.30;14.70;;;17.90;71.20;;;;;;5052983;28;20498;-57
2021/11/23 05:15:08;;;;;;;15.90;15.30;;;18.00;71.30;;;;;;5053187;28;20522;-55
2021/11/23 05:17:35;;;;;;;15.40;14.90;;;18.00;71.20;;;;;;5053026;28;20446;-53
2021/11/23 05:20:02;;;;;;;15.53;15.00;;;18.00;71.20;;;;;;5047834;28;20476;-55
2021/11/23 05:22:29;;;;;;;15.47;14.97;;;18.00;71.30;;;;;;5032370;28;21143;-53
2021/11/23 05:24:56;;;;;;;15.50;15.00;;;18.00;71.10;;;;;;5033092;28;20445;-56
2021/11/23 05:27:23;;;;;;;15.77;15.17;;;18.00;71.10;;;;;;5032823;28;20503;-53
2021/11/23 05:29:51;;;;;;;16.23;15.63;;;18.00;71.30;;;;;;5037548;28;20539;-57
2021/11/23 05:32:17;;;;;;;15.93;15.13;;;17.90;71.70;;;;;;5051764;28;20479;-54
2021/11/23 05:34:44;;;;;;;16.47;15.87;;;17.90;71.80;;;;;;5052377;28;20458;-56
2021/11/23 05:37:11;;;;;;;16.23;15.63;;;17.90;72.10;;;;;;5052619;28;20527;-56
2021/11/23 05:39:38;;;;;;;15.20;14.60;;;17.90;72.10;;;;;;5048825;28;20492;-57
2021/11/23 05:42:05;;;;;;;15.77;15.17;;;17.90;72.10;;;;;;5039172;28;20452;-55
2021/11/23 05:44:32;;;;;;;15.60;15.10;;;18.00;71.90;;;;;;5052325;28;20451;-58
2021/11/23 05:47:00;;;;;;;16.20;15.60;;;17.90;71.90;;;;;;5052590;28;20443;-54
2021/11/23 05:49:27;;;;;;;16.20;15.60;;;17.90;71.80;;;;;;5048039;28;20441;-56
2021/11/23 05:51:55;;;;;;;15.87;15.30;;;18.00;72.30;;;;;;5032644;28;20453;-53
2021/11/23 05:54:21;;;;;;;17.17;16.40;;;18.70;71.80;;;;;;5032375;28;20967;-54
2021/11/23 05:56:48;;;;;;;16.10;15.50;;;19.70;69.20;;;;;;5032342;28;20452;-55
2021/11/23 05:59:17;;;;;;;15.93;15.37;;;20.70;65.00;;;;;;5034465;28;20481;-54
2021/11/23 06:01:44;;;;;;;15.80;15.30;;;21.20;61.90;;;;;;5052414;28;20444;-51
2021/11/23 06:04:12;;;;;;;16.20;15.60;;;21.50;59.90;;;;;;5052157;28;20464;-58
2021/11/23 06:06:39;;;;;;;15.33;14.77;;;21.60;58.90;;;;;;5051866;28;20857;-57
2021/11/23 06:09:06;;;;;;;17.10;16.50;;;21.70;58.30;;;;;;5048249;28;20437;-53
2021/11/23 06:11:33;;;;;;;16.10;15.50;;;21.80;57.90;;;;;;5031868;28;20455;-55
2021/11/23 06:14:00;;;;;;;17.07;16.37;;;21.80;57.60;;;;;;5046034;28;20810;-54
2021/11/23 06:16:28;;;;;;;17.40;16.70;;;21.80;57.30;;;;;;5051954;28;20487;-55
2021/11/23 06:18:55;;;;;;;16.90;16.27;;;21.80;57.20;;;;;;5050580;28;20483;-55
2021/11/23 06:21:25;;;;;;;16.90;16.30;;;21.70;57.10;;;;;;5032690;28;20452;-54
2021/11/23 06:23:53;;;;;;;16.30;15.70;;;21.70;57.10;;;;;;5033100;28;20469;-56
2021/11/23 06:26:20;;;;;;;16.20;15.57;;;21.70;57.00;;;;;;5033099;28;20449;-56
2021/11/23 06:28:49;;;;;;;15.73;15.17;;;21.60;57.00;;;;;;5020607;28;20444;-54
2021/11/23 06:31:15;;;;;;;16.60;16.00;;;21.50;57.10;;;;;;5025907;28;20456;-53
2021/11/23 06:33:42;;;;;;;16.20;15.60;;;21.40;57.30;;;;;;5039331;28;20487;-55
2021/11/23 06:36:09;;;;;;;15.90;15.30;;;21.40;57.40;;;;;;5039702;28;20449;-55
2021/11/23 06:38:37;;;;;;;15.70;15.10;;;21.40;57.60;;;;;;5039687;28;20809;-56
2021/11/23 06:41:04;;;;;;;15.63;15.03;;;21.30;57.70;;;;;;5039788;28;20453;-54
2021/11/23 06:43:31;;;;;;;15.53;14.93;;;21.20;57.90;;;;;;5029997;28;20476;-54
2021/11/23 06:45:58;;;;;;;15.43;14.93;;;21.20;58.00;;;;;;5023053;28;20449;-54
2021/11/23 06:48:24;;;;;;;15.63;15.03;;;21.10;58.10;;;;;;5023697;28;20453;-49
2021/11/23 06:50:53;;;;;;;12.50;12.10;;;21.00;58.40;;;;;;5022167;28;20912;-53
2021/11/23 06:53:20;;;;;;;12.53;12.13;;;21.00;58.50;;;;;;5021860;28;20477;-53
2021/11/23 06:55:48;;;;;;;13.03;12.63;;;21.00;58.50;;;;;;5034654;28;20972;-53
2021/11/23 06:58:15;;;;;;;14.20;13.70;;;20.90;58.60;;;;;;5042227;28;20908;-53
2021/11/23 07:00:42;;;;;;;14.17;13.67;;;20.90;58.90;;;;;;5042109;28;21209;-53
2021/11/23 07:03:09;;;;;;;14.13;13.43;;;20.90;58.90;;;;;;5042020;28;20468;-51
2021/11/23 07:05:36;;;;;;;12.73;12.03;;;20.90;59.10;;;;;;5042277;28;20452;-51
2021/11/23 07:08:03;;;;;;;12.87;12.47;;;20.80;59.40;;;;;;5027282;28;20495;-51
2021/11/23 07:10:30;;;;;;;13.20;12.70;;;20.80;59.50;;;;;;5021946;28;20445;-52
2021/11/23 07:12:59;;;;;;;14.20;13.60;;;20.80;59.70;;;;;;5021955;28;21295;-49
2021/11/23 07:15:26;;;;;;;14.30;13.80;;;20.60;60.10;;;;;;5028563;28;20448;-54
2021/11/23 07:17:53;;;;;;;14.17;13.60;;;20.60;60.30;;;;;;5041900;28;20816;-48
2021/11/23 07:20:20;;;;;;;14.63;14.13;;;20.80;60.20;;;;;;5031440;28;20496;-51
2021/11/23 07:22:47;;;;;;;13.50;13.00;;;20.70;60.20;;;;;;5021466;28;21123;-53
2021/11/23 07:25:14;;;;;;;13.50;13.10;;;20.80;60.30;;;;;;5025982;28;20954;-50
2021/11/23 07:27:42;;;;;;;14.23;13.80;;;20.80;60.30;;;;;;5041360;28;20455;-53
2021/11/23 07:30:13;;;;;;;14.33;13.73;;;20.70;60.10;;;;;;5041629;28;20459;-52
2021/11/23 07:32:40;;;;;;;14.70;13.90;;;20.70;60.80;;;;;;5041325;28;20468;-50
2021/11/23 07:35:08;;;;;;;14.47;13.90;;;20.60;60.70;;;;;;5041454;28;20881;-52
2021/11/23 07:37:39;;;;;;;13.90;13.40;;;20.50;61.10;;;;;;5040870;28;20459;-52
2021/11/23 07:40:06;;;;;;;14.17;13.67;;;20.40;61.60;;;;;;5041565;28;20895;-52
2021/11/23 07:42:33;;;;;;;13.83;13.33;;;20.30;62.20;;;;;;5041040;28;20475;-53
2021/11/23 07:45:00;;;;;;;15.20;14.60;;;20.20;62.60;;;;;;5041514;28;20448;-51
2021/11/23 07:47:28;;;;;;;14.30;13.73;;;20.10;62.90;;;;;;5041285;28;20452;-56
2021/11/23 07:49:55;;;;;;;14.33;13.73;;;20.20;64.00;;;;;;5030062;28;20449;-53
2021/11/23 07:52:22;;;;;;;14.60;14.00;;;20.10;64.30;;;;;;5022058;28;20469;-54
2021/11/23 07:54:49;;;;;;;14.90;14.20;;;20.00;64.50;;;;;;5021331;28;20965;-50
2021/11/23 07:57:16;;;;;;;15.60;14.90;;;20.00;64.70;;;;;;5020898;28;20484;-53
2021/11/23 07:59:43;;;;;;;15.40;14.60;;;20.00;65.10;;;;;;5020972;28;20496;-55
2021/11/23 08:02:10;;;;;;;14.70;14.20;;;20.00;65.50;;;;;;5021269;28;20495;-52
2021/11/23 08:04:38;;;;;;;14.90;14.40;;;19.90;65.20;;;;;;5027207;28;20544;-48
2021/11/23 08:07:05;;;;;;;15.50;14.87;;;19.90;65.00;;;;;;5032628;28;20445;-49
2021/11/23 08:09:32;;;;;;;14.93;14.23;;;19.80;63.20;;;;;;5032810;28;20817;-49
2021/11/23 08:11:59;;;;;;;14.60;14.10;;;19.80;62.40;;;;;;5032489;28;20950;-52
2021/11/23 08:14:27;;;;;;;15.00;14.30;;;19.70;62.90;;;;;;5032515;28;21068;-49
2021/11/23 08:16:56;;;;;;;15.17;14.47;;;19.60;63.60;;;;;;5032656;28;20453;-50
2021/11/23 08:19:23;;;;;;;18.03;16.17;;;19.60;64.80;;;;;;5032422;28;20477;-50
2021/11/23 08:21:51;;;;;;;16.03;14.93;;;19.70;71.80;;;;;;5032362;28;20503;-49
2021/11/23 08:24:18;;;;;;;17.90;16.60;;;19.60;74.90;;;;;;5044378;28;20876;-48
2021/11/23 08:26:45;;;;;;;22.43;17.00;;;19.60;84.70;;;;;;5052382;28;20530;-48
2021/11/23 08:29:12;;;;;;;18.77;15.83;;;19.60;96.20;;;;;;5051939;28;20937;-48
2021/11/23 08:31:39;;;;;;;17.40;15.80;;;19.70;99.90;;;;;;5052129;28;20452;-48
2021/11/23 08:34:06;;;;;;;29.60;18.37;;;19.70;99.90;;;;;;5041411;28;20475;-50
2021/11/23 08:36:34;;;;;;;18.43;17.07;;;19.70;99.90;;;;;;5032434;28;20874;-54
2021/11/23 08:39:05;;;;;;;20.30;16.40;;;19.70;99.90;;;;;;5032435;28;20455;-50
2021/11/23 08:41:31;;;;;;;18.47;17.07;;;19.80;99.90;;;;;;5032440;28;20445;-49
2021/11/23 08:43:58;;;;;;;21.80;16.83;;;19.80;99.90;;;;;;5041127;28;20464;-49
2021/11/23 08:46:29;;;;;;;18.30;16.90;;;19.70;99.90;;;;;;5052244;28;20448;-48
2021/11/23 08:48:57;;;;;;;18.47;16.90;;;19.70;99.90;;;;;;5052242;28;20440;-50
2021/11/23 08:51:29;;;;;;;17.10;16.10;;;19.70;99.90;;;;;;5052237;28;20440;-49
2021/11/23 08:53:57;;;;;;;19.13;17.53;;;19.70;99.90;;;;;;5052107;28;20472;-50
2021/11/23 08:56:32;;;;;;;17.37;16.27;;;19.70;99.90;;;;;;5037861;28;20449;-49
2021/11/23 08:59:01;;;;;;;17.07;15.80;;;19.60;99.90;;;;;;5032066;28;20530;-50
2021/11/23 09:01:29;;;;;;;18.40;16.83;;;19.60;99.90;;;;;;5031830;28;20487;-50
2021/11/23 09:03:57;;;;;;;16.77;15.67;;;19.60;99.90;;;;;;5031855;28;20468;-53
2021/11/23 09:06:26;;;;;;;18.03;16.60;;;19.60;99.90;;;;;;5031750;28;20448;-47
2021/11/23 09:08:57;;;;;;;18.20;16.90;;;19.50;99.90;;;;;;5050790;28;20913;-51
2021/11/23 09:11:27;;;;;;;17.70;16.03;;;19.50;99.90;;;;;;5051765;28;20530;-49
2021/11/23 09:13:55;;;;;;;17.80;16.00;;;19.50;99.90;;;;;;5051280;28;20463;-50
2021/11/23 09:16:23;;;;;;;18.30;16.80;;;19.60;99.90;;;;;;5051752;28;20449;-51
2021/11/23 09:18:51;;;;;;;16.90;15.60;;;19.60;99.90;;;;;;5050057;28;20448;-50
2021/11/23 09:21:19;;;;;;;17.33;16.13;;;19.60;99.70;;;;;;5051836;28;20522;-52
2021/11/23 09:23:46;;;;;;;17.43;16.13;;;19.50;99.40;;;;;;5036957;28;20556;-49
2021/11/23 09:26:14;;;;;;;16.17;15.17;;;19.60;99.20;;;;;;5031857;28;20536;-50
2021/11/23 09:28:43;;;;;;;16.73;15.77;;;19.60;99.00;;;;;;5031795;28;20449;-49
2021/11/23 09:31:11;;;;;;;16.63;15.63;;;19.50;98.90;;;;;;5036943;28;20440;-50
2021/11/23 09:33:38;;;;;;;17.80;16.33;;;19.60;99.00;;;;;;5051049;28;20475;-49
2021/11/23 09:36:06;;;;;;;16.77;15.87;;;19.50;98.70;;;;;;5051571;28;20860;-49
2021/11/23 09:38:36;;;;;;;16.20;15.30;;;19.50;98.60;;;;;;5045682;28;20451;-51
2021/11/23 09:41:03;;;;;;;19.13;17.83;;;19.50;98.50;;;;;;5031528;28;20534;-48
2021/11/23 09:43:31;;;;;;;17.77;16.40;;;19.50;98.30;;;;;;5031207;28;20476;-51
2021/11/23 09:45:59;;;;;;;17.20;16.00;;;19.30;98.50;;;;;;5031527;28;20453;-48
2021/11/23 09:48:27;;;;;;;17.33;16.33;;;19.30;98.60;;;;;;5031585;28;20460;-50
2021/11/23 09:50:55;;;;;;;16.77;15.77;;;19.30;98.40;;;;;;5031441;28;20433;-48
2021/11/23 09:53:24;;;;;;;16.47;15.13;;;19.30;98.30;;;;;;5031315;28;20469;-49
2021/11/23 09:55:53;;;;;;;16.47;15.33;;;19.30;98.00;;;;;;5031415;28;20445;-51
2021/11/23 09:58:21;;;;;;;14.43;13.83;;;19.30;97.90;;;;;;5031530;28;20528;-50
2021/11/23 10:00:52;;;;;;;16.03;14.80;;;19.30;97.60;;;;;;5035038;28;20988;-49
2021/11/23 10:03:29;;;;;;;16.00;15.20;;;19.20;98.00;;;;;;5051309;28;20500;-48
2021/11/23 10:06:09;;;;;;;15.60;14.53;;;19.30;97.90;;;;;;5050951;28;20443;-49
2021/11/23 10:08:38;;;;;;;16.17;15.37;;;19.40;97.60;;;;;;5051148;28;20448;-53
2021/11/23 10:11:06;;;;;;;16.40;15.50;;;19.30;97.40;;;;;;5051230;28;20495;-52
2021/11/23 10:13:44;;;;;;;15.97;15.17;;;19.30;97.60;;;;;;5050782;28;20542;-51
2021/11/23 10:16:12;;;;;;;15.23;14.43;;;19.30;97.50;;;;;;5051397;28;20451;-51
2021/11/23 10:18:42;;;;;;;15.13;14.43;;;19.30;97.30;;;;;;5040060;28;20456;-51
2021/11/23 10:21:12;;;;;;;15.47;14.57;;;19.30;97.30;;;;;;5035028;28;21056;-50
2021/11/23 10:23:43;;;;;;;16.10;15.10;;;19.40;97.10;;;;;;5034714;28;20983;-49
2021/11/23 10:26:14;;;;;;;15.83;14.90;;;19.30;97.10;;;;;;5051746;28;20444;-50
2021/11/23 10:28:44;;;;;;;15.03;14.33;;;19.30;97.00;;;;;;5054840;28;20444;-50
2021/11/23 10:31:13;;;;;;;14.07;13.57;;;19.30;97.10;;;;;;5054772;28;20440;-49
2021/11/23 10:33:44;;;;;;;14.50;13.80;;;19.30;97.00;;;;;;5054389;28;20516;-49
2021/11/23 10:36:15;;;;;;;15.33;14.23;;;19.30;96.80;;;;;;5054336;28;20873;-51
2021/11/23 10:38:44;;;;;;;14.83;14.23;;;19.40;96.50;;;;;;5014782;28;20817;-54
2021/11/23 10:41:13;;;;;;;14.50;13.90;;;19.10;96.30;;;;;;5014732;28;20481;-50
2021/11/23 10:43:42;;;;;;;14.43;13.90;;;19.00;96.40;;;;;;5031889;28;20476;-59
2021/11/23 10:46:15;;;;;;;14.83;14.00;;;18.90;96.70;;;;;;5034618;28;20444;-49
2021/11/23 10:48:53;;;;;;;15.03;14.17;;;19.10;97.00;;;;;;5053257;28;20470;-51
2021/11/23 10:51:22;;;;;;;15.27;14.50;;;19.20;96.60;;;;;;5054240;28;20871;-50
2021/11/23 10:53:50;;;;;;;14.97;14.27;;;19.20;96.50;;;;;;5053964;28;20555;-47
2021/11/23 10:56:20;;;;;;;16.07;15.37;;;19.30;96.50;;;;;;5054272;28;20534;-53
2021/11/23 10:58:49;;;;;;;15.53;14.80;;;19.30;96.40;;;;;;5034383;28;20463;-51
2021/11/23 11:01:18;;;;;;;15.53;14.93;;;19.30;96.10;;;;;;5034150;28;20485;-52
2021/11/23 11:03:49;;;;;;;15.60;15.00;;;19.30;96.00;;;;;;5033772;28;20524;-51
2021/11/23 11:06:17;;;;;;;15.20;14.50;;;19.30;96.00;;;;;;5035275;28;20943;-51
2021/11/23 11:08:46;;;;;;;15.47;14.60;;;19.30;96.20;;;;;;5034090;28;21029;-51
2021/11/23 11:11:16;;;;;;;14.87;14.17;;;19.30;96.20;;;;;;5033807;28;20934;-51
2021/11/23 11:13:48;;;;;;;14.27;13.67;;;19.60;96.50;;;;;;5033570;28;20473;-54
2021/11/23 11:16:17;;;;;;;14.30;13.70;;;20.60;93.80;;;;;;5046935;28;20535;-51
2021/11/23 11:19:04;;;;;;;15.03;14.43;;;21.10;91.60;;;;;;5053667;28;20472;-54
2021/11/23 11:21:32;;;;;;;14.73;14.13;;;21.80;90.00;;;;;;5053222;28;20479;-55
2021/11/23 11:24:25;;;;;;;16.37;15.47;;;22.90;84.00;;;;;;5036909;28;20474;-55
2021/11/23 11:26:56;;;;;;;15.10;14.50;;;23.70;77.10;;;;;;5033560;28;20441;-55
2021/11/23 11:29:28;;;;;;;15.17;14.53;;;24.00;73.10;;;;;;5033688;28;20441;-52
2021/11/23 11:31:58;;;;;;;15.30;14.60;;;24.10;70.90;;;;;;5032728;28;20447;-51
2021/11/23 11:34:30;;;;;;;14.87;14.20;;;24.20;69.30;;;;;;5050054;28;20834;-54
2021/11/23 11:37:17;;;;;;;16.10;15.20;;;24.20;67.70;;;;;;5053413;28;20491;-51
2021/11/23 11:40:03;;;;;;;15.60;15.00;;;24.20;66.90;;;;;;5053400;28;20436;-50
2021/11/23 11:42:53;;;;;;;17.17;16.37;;;24.20;66.20;;;;;;5051835;28;20877;-54
2021/11/23 11:45:23;;;;;;;16.33;15.53;;;24.30;65.60;;;;;;5033388;28;20441;-51
2021/11/23 11:47:52;;;;;;;15.70;15.10;;;24.60;64.50;;;;;;5033126;28;20437;-51
2021/11/23 11:50:30;;;;;;;17.17;16.37;;;25.10;59.20;;;;;;5039893;28;20514;-55
2021/11/23 11:53:14;;;;;;;15.97;15.30;;;25.40;58.50;;;;;;5052952;28;20812;-53
2021/11/23 11:55:50;;;;;;;16.10;15.30;;;25.50;57.90;;;;;;5053123;28;20444;-51
2021/11/23 11:58:55;;;;;;;16.60;15.90;;;25.50;57.40;;;;;;5053108;28;20827;-54
2021/11/23 12:01:28;;;;;;;16.00;15.30;;;25.50;57.10;;;;;;4976584;28;20910;-52
2021/11/23 12:04:09;;;;;;;14.80;14.10;;;25.50;57.00;;;;;;4971996;28;20487;-50
2021/11/23 12:07:11;;;;;;;15.80;15.10;;;25.40;56.90;;;;;;5009397;28;20467;-53
2021/11/23 12:09:41;;;;;;;14.90;14.20;;;25.40;57.00;;;;;;5032969;28;20441;-51
2021/11/23 12:12:34;;;;;;;15.30;14.80;;;25.30;56.90;;;;;;5052459;28;20478;-51
2021/11/23 12:15:10;;;;;;;15.30;14.70;;;25.20;56.70;;;;;;5052367;28;20512;-56
2021/11/23 12:17:58;;;;;;;15.10;14.50;;;25.20;56.70;;;;;;5052618;28;20292;-50
2021/11/23 12:20:43;;;;;;;15.63;15.03;;;25.10;56.90;;;;;;5045671;28;20876;-52
2021/11/23 12:23:18;;;;;;;15.37;14.80;;;25.10;56.70;;;;;;5032622;28;20547;-55
2021/11/23 12:25:57;;;;;;;16.37;15.67;;;25.00;57.30;;;;;;5032672;28;20881;-55
2021/11/23 12:28:27;;;;;;;15.83;15.03;;;24.90;57.30;;;;;;5032470;28;20449;-51
2021/11/23 12:30:55;;;;;;;17.13;16.43;;;24.90;57.90;;;;;;5032475;28;20481;-51
2021/11/23 12:33:23;;;;;;;15.90;15.20;;;24.80;57.40;;;;;;5032001;28;20465;-54
2021/11/23 12:35:50;;;;;;;15.40;14.63;;;24.80;57.60;;;;;;5032296;28;20445;-55
2021/11/23 12:38:29;;;;;;;15.17;14.67;;;24.70;57.60;;;;;;5032284;28;20481;-54
2021/11/23 12:41:09;;;;;;;15.77;15.17;;;24.70;57.60;;;;;;5041731;28;20480;-54